Time;durP1;ratioP1;P1;durP2;ratioP2;P2;SDS_P1;SDS_P2;PMS_P1;PMS_P2;Temp;Humidity;BMP_temperature;BMP_pressure;BME280_temperature;BME280_humidity;BME280_pressure;Samples;Min_cycle;Max_cycle;Signal;HPM_P1;HPM_P2
2022/07/13 00:02:05;;;;;;;2.50;2.30;;;;;;;17.53;nan;-24305.50;4977656;28;20184;-55
2022/07/13 00:04:30;;;;;;;2.83;2.17;;;;;;;17.24;nan;-24297.41;4979728;28;20180;-56
2022/07/13 00:06:56;;;;;;;2.80;2.28;;;;;;;17.40;nan;-24301.72;4977401;28;20211;-57
2022/07/13 00:09:21;;;;;;;3.47;2.40;;;;;;;17.32;nan;-24299.63;4979572;28;20169;-57
2022/07/13 00:11:46;;;;;;;2.35;2.15;;;;;;;17.32;nan;-24299.63;4975467;28;20676;-56
2022/07/13 00:14:12;;;;;;;2.80;2.35;;;;;;;17.23;nan;-24297.13;4978259;28;20189;-56
2022/07/13 00:16:37;;;;;;;2.63;2.15;;;;;;;17.35;nan;-24300.47;4979221;28;20177;-57
2022/07/13 00:19:03;;;;;;;3.30;2.30;;;;;;;17.15;nan;-24295.03;4977833;28;20578;-55
2022/07/13 00:21:28;;;;;;;3.85;2.20;;;;;;;15.36;nan;-24245.38;5010579;28;20287;-56
2022/07/13 00:23:54;;;;;;;4.30;2.30;;;;;;;17.04;nan;-24291.97;4977318;28;20205;-56
2022/07/13 00:26:19;;;;;;;2.60;2.10;;;;;;;17.05;nan;-24292.09;4981944;28;20173;-55
2022/07/13 00:28:45;;;;;;;2.55;2.10;;;;;;;17.51;nan;-24304.94;4981568;28;20733;-55
2022/07/13 00:31:10;;;;;;;2.92;2.40;;;;;;;17.37;nan;-24300.91;4981038;28;20185;-56
2022/07/13 00:33:36;;;;;;;3.00;2.25;;;;;;;17.39;nan;-24301.59;4983404;28;20188;-55
2022/07/13 00:36:01;;;;;;;3.70;2.47;;;;;;;17.75;nan;-24311.38;4980105;28;21463;-55
2022/07/13 00:38:26;;;;;;;2.22;2.00;;;;;;;17.61;nan;-24307.59;4983281;28;20220;-56
2022/07/13 00:40:52;;;;;;;3.47;2.20;;;;;;;17.59;nan;-24307.03;4981062;28;20212;-56
2022/07/13 00:43:17;;;;;;;2.15;1.95;;;;;;;17.73;nan;-24310.94;4981591;28;20190;-55
2022/07/13 00:45:43;;;;;;;2.22;2.03;;;;;;;17.67;nan;-24309.41;4981112;28;20687;-56
2022/07/13 00:48:10;;;;;;;2.42;2.20;;;;;;;17.19;nan;-24296.00;4982878;28;20181;-56
2022/07/13 00:50:35;;;;;;;2.20;2.00;;;;;;;17.61;nan;-24307.75;4981317;28;20195;-55
2022/07/13 00:53:01;;;;;;;3.50;1.90;;;;;;;18.04;nan;-24319.44;4980570;28;20182;-56
2022/07/13 00:55:27;;;;;;;2.20;1.80;;;;;;;17.72;nan;-24310.53;4982584;28;20505;-56
2022/07/13 00:57:54;;;;;;;2.30;1.80;;;;;;;17.72;nan;-24310.53;4981002;28;20620;-55
2022/07/13 01:00:19;;;;;;;2.85;2.25;;;;;;;17.90;nan;-24315.69;4981380;28;21158;-56
2022/07/13 01:02:46;;;;;;;2.20;2.00;;;;;;;17.77;nan;-24312.06;4981158;28;20308;-57
2022/07/13 01:05:13;;;;;;;2.22;2.03;;;;;;;17.84;nan;-24313.88;4980550;28;20186;-56
2022/07/13 01:07:40;;;;;;;3.22;2.17;;;;;;;17.78;nan;-24312.34;4982204;28;20271;-57
2022/07/13 01:10:08;;;;;;;2.65;2.10;;;;;;;18.03;nan;-24319.19;4980542;28;20268;-54
2022/07/13 01:12:36;;;;;;;2.72;2.40;;;;;;;18.01;nan;-24318.63;4982522;28;20192;-56
2022/07/13 01:15:02;;;;;;;3.15;2.45;;;;;;;17.69;nan;-24309.84;4980923;28;20209;-56
2022/07/13 01:17:30;;;;;;;2.25;2.00;;;;;;;18.06;nan;-24320.16;4982955;28;20192;-56
2022/07/13 01:19:57;;;;;;;2.90;2.13;;;;;;;17.10;nan;-24293.50;4980580;28;20188;-56
2022/07/13 01:22:25;;;;;;;2.30;2.10;;;;;;;18.06;nan;-24320.00;4982648;28;20632;-57
2022/07/13 01:24:55;;;;;;;2.40;2.10;;;;;;;18.10;nan;-24321.13;4978231;28;20203;-56
2022/07/13 01:27:21;;;;;;;2.58;2.13;;;;;;;17.79;nan;-24312.47;4980643;28;20188;-55
2022/07/13 01:29:47;;;;;;;4.18;2.10;;;;;;;18.07;nan;-24320.44;4979837;28;20180;-55
2022/07/13 01:32:12;;;;;;;2.60;2.33;;;;;;;18.11;nan;-24321.41;4980130;28;20261;-56
2022/07/13 01:34:38;;;;;;;3.05;2.25;;;;;;;18.07;nan;-24320.44;4979759;28;20276;-56
2022/07/13 01:37:03;;;;;;;3.00;2.00;;;;;;;18.03;nan;-24319.19;4979519;28;20312;-56
2022/07/13 01:39:29;;;;;;;2.95;2.33;;;;;;;17.89;nan;-24315.28;4980894;28;20642;-55
2022/07/13 01:41:54;;;;;;;2.35;2.15;;;;;;;17.55;nan;-24305.91;4979246;28;20702;-56
2022/07/13 01:44:20;;;;;;;2.13;1.92;;;;;;;17.75;nan;-24311.38;4977215;28;20668;-57
2022/07/13 01:46:45;;;;;;;4.50;2.40;;;;;;;17.56;nan;-24306.19;4976168;28;20197;-56
2022/07/13 01:49:11;;;;;;;2.63;2.10;;;;;;;17.57;nan;-24306.47;4979808;28;20196;-55
2022/07/13 01:51:37;;;;;;;2.55;2.03;;;;;;;17.72;nan;-24310.53;4979647;28;20662;-55
2022/07/13 01:54:03;;;;;;;4.85;2.38;;;;;;;17.54;nan;-24305.78;4979265;28;20182;-55
2022/07/13 01:56:29;;;;;;;2.38;2.17;;;;;;;17.53;nan;-24305.34;4979049;28;20667;-56
2022/07/13 01:58:54;;;;;;;2.97;1.98;;;;;;;17.29;nan;-24298.66;4979193;28;20272;-57
2022/07/13 02:01:20;;;;;;;4.95;2.25;;;;;;;17.72;nan;-24310.66;4983487;28;20290;-55
2022/07/13 02:03:46;;;;;;;2.60;2.40;;;;;;;17.84;nan;-24313.88;4979938;28;20200;-56
2022/07/13 02:06:11;;;;;;;3.22;2.25;;;;;;;17.63;nan;-24308.28;4981384;28;20181;-55
2022/07/13 02:08:37;;;;;;;5.88;2.15;;;;;;;17.82;nan;-24313.47;4977845;28;20185;-55
2022/07/13 02:11:03;;;;;;;4.47;2.30;;;;;;;17.66;nan;-24309.13;4980008;28;20189;-56
2022/07/13 02:13:29;;;;;;;3.47;2.20;;;;;;;17.59;nan;-24307.19;4980233;28;20180;-56
2022/07/13 02:15:54;;;;;;;2.65;2.30;;;;;;;17.73;nan;-24310.81;4979194;28;20576;-56
2022/07/13 02:18:20;;;;;;;2.83;2.22;;;;;;;17.41;nan;-24302.16;4979261;28;20226;-55
2022/07/13 02:20:46;;;;;;;2.60;2.00;;;;;;;17.60;nan;-24307.47;4978817;28;20259;-59
2022/07/13 02:23:12;;;;;;;2.78;2.30;;;;;;;17.51;nan;-24304.94;4978850;28;20185;-57
2022/07/13 02:25:38;;;;;;;2.72;2.20;;;;;;;17.52;nan;-24305.09;4978972;28;20535;-56
2022/07/13 02:28:05;;;;;;;2.40;2.20;;;;;;;17.47;nan;-24303.81;4979630;28;20260;-56
2022/07/13 02:30:30;;;;;;;2.30;2.10;;;;;;;17.81;nan;-24313.03;4977576;28;20180;-57
2022/07/13 02:32:57;;;;;;;2.78;2.20;;;;;;;17.60;nan;-24307.47;4978804;28;20263;-57
2022/07/13 02:35:22;;;;;;;2.67;2.35;;;;;;;17.73;nan;-24310.81;4978545;28;20624;-56
2022/07/13 02:37:48;;;;;;;3.47;2.42;;;;;;;16.84;nan;-24286.38;4975207;28;20213;-57
2022/07/13 02:40:13;;;;;;;3.08;2.30;;;;;;;17.77;nan;-24311.91;4980568;28;20215;-56
2022/07/13 02:42:39;;;;;;;3.00;2.25;;;;;;;17.45;nan;-24303.28;4978331;28;20268;-56
2022/07/13 02:45:06;;;;;;;2.97;2.40;;;;;;;17.16;nan;-24295.16;4979362;28;20242;-55
2022/07/13 02:47:32;;;;;;;2.60;2.15;;;;;;;17.52;nan;-24305.22;4979021;28;20180;-58
2022/07/13 02:49:57;;;;;;;2.65;2.05;;;;;;;17.37;nan;-24300.91;4976458;28;20185;-56
2022/07/13 02:52:22;;;;;;;2.53;2.20;;;;;;;17.19;nan;-24296.00;4980649;28;20562;-55
2022/07/13 02:54:48;;;;;;;7.00;2.10;;;;;;;17.30;nan;-24298.94;4978406;28;20327;-56
2022/07/13 02:57:14;;;;;;;2.72;2.22;;;;;;;17.37;nan;-24300.91;4978825;28;20688;-56
2022/07/13 02:59:39;;;;;;;2.78;2.30;;;;;;;17.36;nan;-24300.75;4977828;28;20193;-55
2022/07/13 03:02:06;;;;;;;2.95;2.38;;;;;;;17.22;nan;-24296.84;4977077;28;20196;-57
2022/07/13 03:04:33;;;;;;;2.95;2.13;;;;;;;17.21;nan;-24296.56;4974200;28;20263;-56
2022/07/13 03:06:58;;;;;;;3.08;2.30;;;;;;;17.37;nan;-24301.03;4975633;28;20684;-56
2022/07/13 03:09:24;;;;;;;4.05;2.28;;;;;;;17.45;nan;-24303.13;4979606;28;20202;-57
2022/07/13 03:11:50;;;;;;;2.95;2.22;;;;;;;17.18;nan;-24295.88;4976433;28;20193;-57
2022/07/13 03:14:16;;;;;;;2.63;2.25;;;;;;;17.50;nan;-24304.66;4979661;28;20190;-57
2022/07/13 03:16:42;;;;;;;2.63;2.25;;;;;;;17.42;nan;-24302.44;4977275;28;20204;-56
2022/07/13 03:19:08;;;;;;;2.50;2.20;;;;;;;17.44;nan;-24303.00;4977231;28;20593;-57
2022/07/13 03:21:34;;;;;;;3.33;2.30;;;;;;;17.75;nan;-24311.50;4973634;28;20268;-57
2022/07/13 03:24:00;;;;;;;2.50;2.25;;;;;;;18.47;nan;-24331.44;4977838;28;20243;-56
2022/07/13 03:26:25;;;;;;;2.72;1.90;;;;;;;19.27;nan;-24353.44;4978495;28;20251;-58
2022/07/13 03:28:51;;;;;;;2.95;1.95;;;;;;;18.67;nan;-24336.72;4972530;28;20196;-56
2022/07/13 03:31:17;;;;;;;2.40;1.85;;;;;;;20.87;nan;-24397.34;4976432;28;20260;-55
2022/07/13 03:33:43;;;;;;;2.45;1.90;;;;;;;20.90;nan;-24398.03;4975468;28;20197;-57
2022/07/13 03:36:08;;;;;;;2.63;2.22;;;;;;;21.28;nan;-24408.44;4976472;28;20280;-57
2022/07/13 03:38:35;;;;;;;2.13;1.75;;;;;;;22.14;nan;-24432.13;4975963;28;20243;-55
2022/07/13 03:41:00;;;;;;;2.20;2.00;;;;;;;22.92;nan;-24453.44;4976133;28;20212;-56
2022/07/13 03:43:26;;;;;;;2.55;2.10;;;;;;;22.88;nan;-24452.47;4976016;28;20188;-57
2022/07/13 03:45:52;;;;;;;2.90;1.98;;;;;;;23.71;nan;-24474.97;4975007;28;20234;-57
2022/07/13 03:48:18;;;;;;;2.72;2.13;;;;;;;24.16;nan;-24487.41;4977074;28;20713;-58
2022/07/13 03:50:44;;;;;;;3.08;2.05;;;;;;;24.24;nan;-24489.47;4976869;28;20173;-58
2022/07/13 03:53:11;;;;;;;2.53;1.83;;;;;;;24.26;nan;-24489.88;4977387;28;20224;-57
2022/07/13 03:55:38;;;;;;;2.03;1.83;;;;;;;24.91;nan;-24507.78;4977621;28;20181;-55
2022/07/13 03:58:04;;;;;;;2.92;1.70;;;;;;;24.59;nan;-24499.13;4976366;28;20252;-57
2022/07/13 04:00:30;;;;;;;2.17;1.70;;;;;;;24.69;nan;-24501.59;4978901;28;20207;-56
2022/07/13 04:02:56;;;;;;;2.55;1.73;;;;;;;24.86;nan;-24506.28;4982860;28;20188;-58
2022/07/13 04:05:21;;;;;;;1.98;1.58;;;;;;;24.45;nan;-24495.13;4984824;28;20267;-58
2022/07/13 04:07:47;;;;;;;2.03;1.55;;;;;;;24.52;nan;-24497.19;4983255;28;20667;-58
2022/07/13 04:10:12;;;;;;;3.13;1.80;;;;;;;25.00;nan;-24510.13;4984571;28;20178;-57
2022/07/13 04:12:41;;;;;;;1.75;1.65;;;;;;;24.83;nan;-24505.59;4984595;28;20537;-58
2022/07/13 04:15:06;;;;;;;2.25;1.90;;;;;;;24.63;nan;-24500.22;4983468;28;20643;-56
2022/07/13 04:17:32;;;;;;;1.95;1.77;;;;;;;25.29;nan;-24517.97;4985034;28;20177;-59
2022/07/13 04:19:57;;;;;;;2.03;1.65;;;;;;;25.08;nan;-24512.34;5014918;28;20641;-59
2022/07/13 04:22:23;;;;;;;1.98;1.65;;;;;;;25.33;nan;-24519.22;4984262;28;20590;-58
2022/07/13 04:24:48;;;;;;;2.47;2.00;;;;;;;25.36;nan;-24520.03;4983377;28;20209;-57
2022/07/13 04:27:14;;;;;;;2.25;1.70;;;;;;;26.19;nan;-24542.59;4980873;28;21059;-58
2022/07/13 04:29:39;;;;;;;1.98;1.80;;;;;;;26.80;nan;-24559.22;4984969;28;20208;-58
2022/07/13 04:32:05;;;;;;;2.08;1.77;;;;;;;26.69;nan;-24556.06;4984053;28;20272;-57
2022/07/13 04:34:30;;;;;;;1.95;1.75;;;;;;;27.33;nan;-24573.47;4984615;28;20227;-57
2022/07/13 04:36:56;;;;;;;2.10;1.60;;;;;;;26.94;nan;-24562.78;4983646;28;20224;-57
2022/07/13 04:39:21;;;;;;;1.70;1.60;;;;;;;27.02;nan;-24565.13;4983702;28;20177;-57
2022/07/13 04:41:47;;;;;;;2.33;1.77;;;;;;;27.35;nan;-24574.03;4977817;28;20582;-58
2022/07/13 04:44:13;;;;;;;3.85;2.10;;;;;;;26.27;nan;-24544.66;4980128;28;20244;-57
2022/07/13 04:46:38;;;;;;;2.15;1.77;;;;;;;26.95;nan;-24563.19;4985094;28;20212;-56
2022/07/13 04:49:03;;;;;;;2.00;1.70;;;;;;;26.24;nan;-24543.97;4982900;28;20191;-59
2022/07/13 04:51:29;;;;;;;2.00;1.80;;;;;;;26.85;nan;-24560.31;4982698;28;20209;-57
2022/07/13 04:53:55;;;;;;;2.83;2.20;;;;;;;25.74;nan;-24530.22;4982509;28;20272;-57
2022/07/13 04:56:20;;;;;;;2.80;2.13;;;;;;;26.59;nan;-24553.31;5013160;28;20280;-57
2022/07/13 04:58:47;;;;;;;2.25;2.05;;;;;;;26.03;nan;-24538.06;4983545;28;20187;-57
2022/07/13 05:01:15;;;;;;;2.65;1.95;;;;;;;27.18;nan;-24569.38;4982008;28;20202;-57
2022/07/13 05:03:40;;;;;;;2.17;1.85;;;;;;;26.22;nan;-24543.41;4997203;28;20276;-57
2022/07/13 05:06:06;;;;;;;3.42;2.17;;;;;;;25.52;nan;-24524.31;4981291;28;20260;-56
2022/07/13 05:08:31;;;;;;;2.50;2.00;;;;;;;25.05;nan;-24511.50;4984757;28;20172;-56
2022/07/13 05:10:57;;;;;;;4.15;1.83;;;;;;;24.27;nan;-24490.28;4979394;28;20185;-58
2022/07/13 05:13:22;;;;;;;3.35;2.10;;;;;;;23.72;nan;-24475.38;4998073;28;20649;-57
2022/07/13 05:15:48;;;;;;;3.40;1.98;;;;;;;24.01;nan;-24483.25;4983687;28;20196;-57
2022/07/13 05:18:13;;;;;;;2.05;1.77;;;;;;;24.16;nan;-24487.25;4981625;28;20299;-58
2022/07/13 05:20:39;;;;;;;2.83;1.90;;;;;;;24.28;nan;-24490.56;4978872;28;20201;-58
2022/07/13 05:23:04;;;;;;;2.75;1.98;;;;;;;24.34;nan;-24492.09;4988901;28;20729;-58
2022/07/13 05:25:29;;;;;;;3.25;1.75;;;;;;;24.53;nan;-24497.31;4983934;28;20178;-57
2022/07/13 05:27:55;;;;;;;2.25;1.70;;;;;;;24.72;nan;-24502.41;4982429;28;20193;-56
2022/07/13 05:30:21;;;;;;;7.03;2.45;;;;;;;24.67;nan;-24501.03;4984424;28;20217;-58
2022/07/13 05:32:47;;;;;;;1.70;1.60;;;;;;;24.67;nan;-24501.19;4981621;28;20619;-57
2022/07/13 05:35:13;;;;;;;2.42;1.50;;;;;;;21.99;nan;-24428.13;4981679;28;20177;-57
2022/07/13 05:37:38;;;;;;;1.88;1.60;;;;;;;24.62;nan;-24499.94;4975425;28;20236;-56
2022/07/13 05:40:05;;;;;;;2.00;1.60;;;;;;;24.32;nan;-24491.69;4980483;28;20187;-57
2022/07/13 05:42:31;;;;;;;1.50;1.40;;;;;;;24.50;nan;-24496.50;4981361;28;20235;-57
2022/07/13 05:44:56;;;;;;;1.80;1.65;;;;;;;24.52;nan;-24497.19;4980371;28;20182;-57
2022/07/13 05:47:22;;;;;;;2.95;1.63;;;;;;;24.28;nan;-24490.56;4985111;28;20191;-57
2022/07/13 05:49:47;;;;;;;2.05;1.52;;;;;;;24.25;nan;-24489.59;4978723;28;20196;-58
2022/07/13 05:52:13;;;;;;;2.25;1.67;;;;;;;23.91;nan;-24480.50;4981191;28;20186;-57
2022/07/13 05:54:38;;;;;;;2.03;1.80;;;;;;;23.88;nan;-24479.66;4982420;28;20662;-58
2022/07/13 05:57:04;;;;;;;2.00;1.70;;;;;;;23.73;nan;-24475.66;4980489;28;20227;-61
2022/07/13 05:59:29;;;;;;;1.45;1.30;;;;;;;23.67;nan;-24473.88;4977615;28;20594;-57
2022/07/13 06:01:55;;;;;;;1.40;1.30;;;;;;;23.11;nan;-24458.53;4980637;28;20673;-57
2022/07/13 06:04:23;;;;;;;1.90;1.70;;;;;;;22.94;nan;-24453.84;4976463;28;20184;-57
2022/07/13 06:06:49;;;;;;;1.75;1.45;;;;;;;22.83;nan;-24451.09;4983481;28;20280;-59
2022/07/13 06:09:19;;;;;;;1.73;1.52;;;;;;;23.11;nan;-24458.69;4982972;28;20316;-58
2022/07/13 06:11:46;;;;;;;1.55;1.45;;;;;;;23.20;nan;-24461.03;4980441;28;20181;-57
2022/07/13 06:14:12;;;;;;;1.33;1.23;;;;;;;22.83;nan;-24451.09;4978694;28;20200;-56
2022/07/13 06:16:38;;;;;;;1.42;1.33;;;;;;;22.96;nan;-24454.53;4976600;28;20752;-57
2022/07/13 06:19:04;;;;;;;1.77;1.40;;;;;;;23.31;nan;-24464.06;4982241;28;20287;-58
2022/07/13 06:21:29;;;;;;;1.75;1.30;;;;;;;23.18;nan;-24460.47;4976677;28;20672;-57
2022/07/13 06:23:55;;;;;;;2.42;1.33;;;;;;;22.28;nan;-24435.88;4981508;28;20173;-58
2022/07/13 06:26:20;;;;;;;1.70;1.40;;;;;;;23.44;nan;-24467.66;4976539;28;20192;-57
2022/07/13 06:28:46;;;;;;;1.45;1.35;;;;;;;23.61;nan;-24472.22;4982406;28;20188;-57
2022/07/13 06:31:11;;;;;;;2.42;1.50;;;;;;;23.61;nan;-24472.34;4980203;28;20189;-57
2022/07/13 06:33:36;;;;;;;1.50;1.40;;;;;;;23.83;nan;-24478.28;4977694;28;20267;-57
2022/07/13 06:36:02;;;;;;;1.50;1.40;;;;;;;23.82;nan;-24477.88;4976903;28;20890;-56
2022/07/13 06:38:28;;;;;;;3.78;1.40;;;;;;;23.94;nan;-24481.31;4981835;28;20188;-58
2022/07/13 06:40:54;;;;;;;1.60;1.23;;;;;;;23.94;nan;-24481.31;4980555;28;20216;-57
2022/07/13 06:43:19;;;;;;;1.77;1.38;;;;;;;23.84;nan;-24478.56;4983951;28;20185;-57
2022/07/13 06:45:45;;;;;;;2.33;1.45;;;;;;;23.60;nan;-24472.06;4979877;28;20199;-60
2022/07/13 06:48:10;;;;;;;2.10;1.40;;;;;;;23.71;nan;-24475.13;4978978;28;20189;-59
2022/07/13 06:50:36;;;;;;;2.05;1.45;;;;;;;23.85;nan;-24478.69;4977936;28;20181;-59
2022/07/13 06:53:02;;;;;;;2.15;1.95;;;;;;;23.85;nan;-24478.69;4981203;28;20637;-61
2022/07/13 06:55:28;;;;;;;1.80;1.50;;;;;;;24.06;nan;-24484.63;5011388;28;20215;-58
2022/07/13 06:57:55;;;;;;;1.58;1.40;;;;;;;24.42;nan;-24494.28;4977960;28;20181;-57
2022/07/13 07:00:20;;;;;;;3.20;1.35;;;;;;;24.22;nan;-24488.78;4979572;28;20594;-57
2022/07/13 07:02:46;;;;;;;1.60;1.50;;;;;;;24.08;nan;-24485.19;4980219;28;20185;-59
2022/07/13 07:05:11;;;;;;;1.67;1.38;;;;;;;24.46;nan;-24495.53;4973627;28;20181;-59
2022/07/13 07:07:38;;;;;;;1.58;1.30;;;;;;;24.27;nan;-24490.28;4976836;28;20185;-56
2022/07/13 07:10:04;;;;;;;1.95;1.50;;;;;;;24.35;nan;-24492.34;4973988;28;20182;-59
2022/07/13 07:12:30;;;;;;;3.45;1.63;;;;;;;24.51;nan;-24496.78;4976931;28;20200;-60
2022/07/13 07:14:55;;;;;;;1.60;1.25;;;;;;;24.65;nan;-24500.75;4973429;28;20637;-57
2022/07/13 07:17:21;;;;;;;1.23;1.13;;;;;;;24.43;nan;-24494.69;4975636;28;20337;-57
2022/07/13 07:19:47;;;;;;;3.20;1.10;;;;;;;24.69;nan;-24501.59;4975619;28;20185;-58
2022/07/13 07:22:13;;;;;;;1.45;1.20;;;;;;;24.72;nan;-24502.56;4975421;28;20205;-58
2022/07/13 07:24:40;;;;;;;1.25;1.15;;;;;;;24.71;nan;-24502.28;4977678;28;20223;-59
2022/07/13 07:27:07;;;;;;;1.40;1.30;;;;;;;24.72;nan;-24502.41;4977987;28;20183;-59
2022/07/13 07:29:34;;;;;;;1.83;1.27;;;;;;;24.67;nan;-24501.03;4977340;28;20268;-59
2022/07/13 07:32:01;;;;;;;2.30;1.10;;;;;;;24.70;nan;-24502.00;4972959;28;20260;-58
2022/07/13 07:34:30;;;;;;;1.42;1.20;;;;;;;24.93;nan;-24508.22;4974505;28;20197;-58
2022/07/13 07:36:55;;;;;;;1.85;1.30;;;;;;;24.76;nan;-24503.53;4981183;28;20224;-57
2022/07/13 07:39:22;;;;;;;1.75;1.30;;;;;;;24.94;nan;-24508.47;4973013;28;20173;-57
2022/07/13 07:41:49;;;;;;;1.70;1.30;;;;;;;25.26;nan;-24517.16;4976955;28;20596;-59
2022/07/13 07:44:14;;;;;;;1.63;1.40;;;;;;;;;;4977281;28;20196;-58
2022/07/13 07:46:40;;;;;;;1.30;1.10;;;;;;;25.23;nan;-24516.47;4978296;28;20184;-58
2022/07/13 07:49:06;;;;;;;1.30;1.20;;;;;;;25.44;nan;-24522.09;4975618;28;20212;-59
2022/07/13 07:51:31;;;;;;;2.03;1.40;;;;;;;25.61;nan;-24526.78;4973795;28;20169;-58
2022/07/13 07:53:57;;;;;;;1.27;1.17;;;;;;;25.24;nan;-24516.59;4987542;28;20221;-59
2022/07/13 07:56:23;;;;;;;1.85;1.20;;;;;;;25.47;nan;-24523.06;4977175;28;20180;-57
2022/07/13 07:58:49;;;;;;;1.77;1.25;;;;;;;22.59;nan;-24444.31;4974978;28;20197;-59
2022/07/13 08:01:14;;;;;;;1.50;1.40;;;;;;;25.52;nan;-24524.31;4977216;28;20263;-59
2022/07/13 08:03:40;;;;;;;1.83;1.27;;;;;;;25.46;nan;-24522.66;4978234;28;20189;-58
2022/07/13 08:06:05;;;;;;;1.30;1.20;;;;;;;25.68;nan;-24528.56;4976000;28;20177;-58
2022/07/13 08:08:31;;;;;;;1.40;1.30;;;;;;;25.79;nan;-24531.59;4977238;28;20220;-58
2022/07/13 08:10:56;;;;;;;1.50;1.30;;;;;;;25.80;nan;-24531.88;4974897;28;20624;-60
2022/07/13 08:13:22;;;;;;;1.40;1.30;;;;;;;25.92;nan;-24535.19;4975516;28;20566;-58
2022/07/13 08:15:47;;;;;;;1.50;1.20;;;;;;;25.86;nan;-24533.66;4980526;28;20228;-57
2022/07/13 08:18:13;;;;;;;1.63;1.20;;;;;;;25.96;nan;-24536.28;4978777;28;20185;-58
2022/07/13 08:20:38;;;;;;;1.40;1.20;;;;;;;25.97;nan;-24536.41;4977915;28;20208;-57
2022/07/13 08:23:50;;;;;;;1.40;1.20;;;;;;;26.26;nan;-24544.38;4979281;28;20232;-57
2022/07/13 08:25:49;;;;;;;1.52;1.40;;;;;;;26.13;nan;-24540.94;4964986;28;20181;-58
2022/07/13 08:28:15;;;;;;;3.25;1.75;;;;;;;26.21;nan;-24543.00;4979573;28;20614;-57
2022/07/13 08:30:41;;;;;;;3.10;1.65;;;;;;;26.53;nan;-24551.66;4974426;28;20680;-58
2022/07/13 08:33:07;;;;;;;1.30;1.20;;;;;;;26.76;nan;-24557.97;4980573;28;20180;-60
2022/07/13 08:38:35;;;;;;;1.10;1.00;;;;;;;26.67;nan;-24555.50;4976378;28;20197;-58
2022/07/13 08:41:01;;;;;;;2.00;1.20;;;;;;;26.47;nan;-24550.00;4977928;28;20209;-58
2022/07/13 08:43:27;;;;;;;1.52;1.40;;;;;;;26.40;nan;-24548.22;4978467;28;20326;-58
2022/07/13 08:45:52;;;;;;;2.40;1.10;;;;;;;26.24;nan;-24543.97;4977245;28;20180;-58
2022/07/13 08:48:26;;;;;;;1.40;1.30;;;;;;;26.49;nan;-24550.56;4978987;28;20185;-59
2022/07/13 08:50:52;;;;;;;1.30;1.20;;;;;;;26.83;nan;-24560.03;4982728;28;20686;-58
2022/07/13 08:53:19;;;;;;;1.42;1.23;;;;;;;26.91;nan;-24562.09;4984040;28;20193;-59
2022/07/13 08:55:45;;;;;;;1.23;1.13;;;;;;;26.83;nan;-24560.03;4980778;28;20480;-59
2022/07/13 08:58:13;;;;;;;1.17;1.08;;;;;;;27.09;nan;-24566.91;4977554;28;20184;-59
2022/07/13 09:00:42;;;;;;;1.17;1.00;;;;;;;26.99;nan;-24564.28;4982317;28;20213;-58
2022/07/13 09:03:08;;;;;;;1.65;1.25;;;;;;;27.08;nan;-24566.63;4979443;28;20177;-58
2022/07/13 09:05:34;;;;;;;1.63;1.52;;;;;;;27.01;nan;-24564.84;4981062;28;20336;-59
2022/07/13 09:08:05;;;;;;;1.40;1.27;;;;;;;26.57;nan;-24552.75;4982166;28;20183;-58
2022/07/13 09:10:31;;;;;;;1.65;1.25;;;;;;;27.09;nan;-24567.03;4982437;28;20207;-59
2022/07/13 09:12:58;;;;;;;1.20;1.10;;;;;;;26.64;nan;-24554.81;4981917;28;20181;-56
2022/07/13 09:15:24;;;;;;;2.22;1.33;;;;;;;26.61;nan;-24553.84;4981632;28;20626;-59
2022/07/13 09:17:50;;;;;;;2.03;1.63;;;;;;;27.25;nan;-24571.28;4982324;28;20685;-57
2022/07/13 09:20:18;;;;;;;1.58;1.38;;;;;;;27.19;nan;-24569.63;4981556;28;20205;-59
2022/07/13 09:22:55;;;;;;;1.52;1.33;;;;;;;27.17;nan;-24569.22;4981056;28;20189;-58
2022/07/13 09:25:33;;;;;;;1.55;1.30;;;;;;;27.12;nan;-24567.84;4982957;28;20267;-58
2022/07/13 09:28:06;;;;;;;2.78;2.15;;;;;;;27.22;nan;-24570.47;4979420;28;20221;-58
2022/07/13 09:30:32;;;;;;;2.00;1.20;;;;;;;27.30;nan;-24572.50;4978668;28;20196;-60
2022/07/13 09:32:59;;;;;;;1.23;1.13;;;;;;;26.15;nan;-24541.34;4977667;28;20193;-57
2022/07/13 09:35:50;;;;;;;1.50;1.30;;;;;;;27.34;nan;-24573.75;4981590;28;20181;-58
2022/07/13 09:38:36;;;;;;;1.10;1.00;;;;;;;27.78;nan;-24585.53;4981638;28;20208;-57
2022/07/13 09:41:14;;;;;;;1.17;1.08;;;;;;;27.66;nan;-24582.53;4980232;28;20232;-57
2022/07/13 09:47:19;;;;;;;1.30;1.20;;;;;;;27.62;nan;-24581.44;4977689;28;20339;-58
2022/07/13 09:49:45;;;;;;;1.13;1.02;;;;;;;27.48;nan;-24577.59;4979380;28;20201;-57
2022/07/13 09:52:17;;;;;;;1.80;1.27;;;;;;;27.71;nan;-24583.63;4980875;28;20201;-58
2022/07/13 09:54:44;;;;;;;1.55;1.20;;;;;;;27.63;nan;-24581.56;4976902;28;20186;-58
2022/07/13 09:57:13;;;;;;;1.40;1.10;;;;;;;27.91;nan;-24589.25;4981126;28;20178;-58
2022/07/13 09:59:41;;;;;;;1.58;1.15;;;;;;;27.89;nan;-24588.69;4972905;28;20185;-58
2022/07/13 10:02:07;;;;;;;1.35;1.20;;;;;;;28.13;nan;-24595.00;4979484;28;20321;-57
2022/07/13 10:04:33;;;;;;;1.30;1.20;;;;;;;28.45;nan;-24603.88;4977222;28;20206;-56
2022/07/13 10:07:02;;;;;;;1.23;1.13;;;;;;;28.38;nan;-24601.84;4979471;28;20240;-58
2022/07/13 10:09:31;;;;;;;1.20;1.10;;;;;;;28.26;nan;-24598.53;4982989;28;20189;-58
2022/07/13 10:12:03;;;;;;;3.08;1.38;;;;;;;28.26;nan;-24598.69;4979577;28;20649;-56
2022/07/13 10:14:30;;;;;;;1.50;1.30;;;;;;;28.48;nan;-24604.56;4981006;28;20231;-58
2022/07/13 10:17:05;;;;;;;1.08;0.98;;;;;;;28.52;nan;-24605.66;4979184;28;20177;-58
2022/07/13 10:19:33;;;;;;;2.00;1.30;;;;;;;28.03;nan;-24592.38;4982489;28;20176;-57
2022/07/13 10:22:07;;;;;;;1.38;1.27;;;;;;;28.24;nan;-24598.00;4977147;28;20220;-58
2022/07/13 10:24:34;;;;;;;1.52;1.20;;;;;;;28.23;nan;-24597.72;4979269;28;20183;-59
2022/07/13 10:27:18;;;;;;;1.45;1.13;;;;;;;28.41;nan;-24602.66;4978860;28;20360;-58
2022/07/13 10:29:51;;;;;;;1.15;1.05;;;;;;;28.13;nan;-24595.13;4978511;28;20181;-58
2022/07/13 10:32:20;;;;;;;1.30;1.10;;;;;;;27.94;nan;-24590.06;4980657;28;20188;-58
2022/07/13 10:35:09;;;;;;;1.40;1.15;;;;;;;28.28;nan;-24599.09;4976064;28;20240;-57
2022/07/13 10:37:56;;;;;;;2.40;1.20;;;;;;;28.22;nan;-24597.59;4979283;28;20680;-57
2022/07/13 10:40:23;;;;;;;1.30;1.20;;;;;;;28.49;nan;-24604.84;4978389;28;20571;-57
2022/07/13 10:42:54;;;;;;;1.30;1.13;;;;;;;28.51;nan;-24605.53;4978691;28;20181;-57
2022/07/13 10:45:32;;;;;;;1.33;1.23;;;;;;;28.65;nan;-24609.06;4980627;28;20272;-57
2022/07/13 10:47:58;;;;;;;1.40;1.30;;;;;;;27.97;nan;-24590.75;4978687;28;20189;-57
2022/07/13 10:50:26;;;;;;;1.65;1.30;;;;;;;28.03;nan;-24592.53;4980386;28;20244;-58
2022/07/13 10:52:52;;;;;;;1.80;1.23;;;;;;;27.57;nan;-24579.91;4978496;28;20192;-58
2022/07/13 10:55:24;;;;;;;1.23;1.13;;;;;;;27.67;nan;-24582.66;4978218;28;20185;-58
2022/07/13 10:57:49;;;;;;;1.85;1.50;;;;;;;27.78;nan;-24585.69;4978607;28;20194;-58
2022/07/13 11:02:50;;;;;;;2.42;1.70;;;;;;;28.11;nan;-24594.72;4977778;28;20197;-57
2022/07/13 11:05:29;;;;;;;1.80;1.25;;;;;;;27.87;nan;-24588.00;4976689;28;20189;-58
2022/07/13 11:07:55;;;;;;;2.22;1.60;;;;;;;28.13;nan;-24595.00;4975855;28;20183;-58
2022/07/13 11:10:25;;;;;;;1.83;1.48;;;;;;;28.34;nan;-24600.88;4977674;28;20559;-58
2022/07/13 11:13:04;;;;;;;1.45;1.25;;;;;;;28.49;nan;-24604.84;4977963;28;20181;-58
2022/07/13 11:15:44;;;;;;;3.70;1.50;;;;;;;28.98;nan;-24618.25;4978034;28;20737;-58
2022/07/13 11:18:22;;;;;;;1.52;1.40;;;;;;;29.24;nan;-24625.06;4979764;28;20217;-57
2022/07/13 11:21:14;;;;;;;2.10;1.60;;;;;;;29.51;nan;-24632.31;4977015;28;20232;-57
2022/07/13 11:26:35;;;;;;;2.03;1.40;;;;;;;29.71;nan;-24637.75;4981207;28;20210;-57
2022/07/13 11:29:18;;;;;;;1.75;1.33;;;;;;;29.58;nan;-24634.34;4978363;28;20210;-56
2022/07/13 11:31:44;;;;;;;2.40;1.30;;;;;;;29.53;nan;-24633.00;4977102;28;20188;-57
2022/07/13 11:34:11;;;;;;;2.95;1.48;;;;;;;29.64;nan;-24636.00;5010857;28;20181;-58
2022/07/13 11:36:41;;;;;;;1.40;1.30;;;;;;;29.59;nan;-24634.63;4977414;28;20225;-57
2022/07/13 11:39:28;;;;;;;1.40;1.30;;;;;;;29.45;nan;-24630.66;4978607;28;20258;-56
2022/07/13 11:41:55;;;;;;;1.45;1.20;;;;;;;28.63;nan;-24608.53;4974633;28;20213;-57
2022/07/13 11:44:24;;;;;;;1.42;1.30;;;;;;;28.54;nan;-24606.34;4977099;28;20195;-58
2022/07/13 11:46:50;;;;;;;1.50;1.25;;;;;;;28.44;nan;-24603.47;4972870;28;20183;-58
2022/07/13 11:49:15;;;;;;;2.17;1.40;;;;;;;28.90;nan;-24616.06;4977360;28;20232;-58
2022/07/13 11:51:45;;;;;;;1.60;1.50;;;;;;;28.84;nan;-24614.41;4977291;28;20189;-58
2022/07/13 11:54:22;;;;;;;1.35;1.25;;;;;;;29.15;nan;-24622.75;4979408;28;20707;-56